createdAt,value
2018-06-16T00:00:49.212Z,91.60
2018-06-16T00:01:49.200Z,92.47
2018-06-16T00:02:49.202Z,92.76
2018-06-16T00:03:49.187Z,93.05
2018-06-16T00:04:49.170Z,92.66
2018-06-16T00:05:49.158Z,92.61
2018-06-16T00:06:49.147Z,91.80
2018-06-16T00:07:49.135Z,91.80
2018-06-16T00:08:49.128Z,91.99
2018-06-16T00:09:49.116Z,91.84
2018-06-16T00:10:49.107Z,91.75
2018-06-16T00:11:49.237Z,91.99
2018-06-16T00:12:49.084Z,91.70
2018-06-16T00:13:49.096Z,92.18
2018-06-16T00:14:49.061Z,92.66
2018-06-16T00:15:49.051Z,92.57
2018-06-16T00:16:49.042Z,93.05
2018-06-16T00:17:49.016Z,92.85
2018-06-16T00:18:49.010Z,92.66
2018-06-16T00:19:49.014Z,92.66
2018-06-16T00:20:48.982Z,92.85
2018-06-16T00:21:49.082Z,92.76
2018-06-16T00:22:48.968Z,92.85
2018-06-16T00:23:49.004Z,93.15
2018-06-16T00:24:48.943Z,93.24
2018-06-16T00:25:48.930Z,92.66
2018-06-16T00:26:48.917Z,91.99
2018-06-16T00:27:48.955Z,90.45
2018-06-16T00:28:48.901Z,90.64
2018-06-16T00:29:48.876Z,91.22
2018-06-16T00:30:48.870Z,90.45
2018-06-16T00:31:48.860Z,89.87
2018-06-16T00:32:48.844Z,89.29
2018-06-16T00:33:48.837Z,89.78
2018-06-16T00:34:48.824Z,89.10
2018-06-16T00:35:48.820Z,88.14
2018-06-16T00:36:48.796Z,88.91
2018-06-16T00:37:48.790Z,89.01
2018-06-16T00:38:48.779Z,89.20
2018-06-16T00:39:48.767Z,89.43
2018-06-16T00:40:48.754Z,89.05
2018-06-16T00:41:48.741Z,89.39
2018-06-16T00:42:48.732Z,88.95
2018-06-16T00:43:48.723Z,89.10
2018-06-16T00:44:48.710Z,88.81
2018-06-16T00:45:48.700Z,89.10
2018-06-16T00:46:48.686Z,89.58
2018-06-16T00:47:48.682Z,90.83
2018-06-16T00:48:48.655Z,91.41
2018-06-16T00:49:48.652Z,92.28
2018-06-16T00:50:48.636Z,92.43
2018-06-16T00:51:48.630Z,93.48
2018-06-16T00:52:48.637Z,93.58
2018-06-16T00:53:48.604Z,94.45
2018-06-16T00:54:48.602Z,94.73
2018-06-16T00:55:48.583Z,94.64
2018-06-16T00:56:48.568Z,94.54
2018-06-16T00:57:48.560Z,94.92
2018-06-16T00:58:48.540Z,95.31
2018-06-16T00:59:48.535Z,94.83
2018-06-16T01:00:48.525Z,94.92
2018-06-16T01:01:48.521Z,95.12
2018-06-16T01:02:48.501Z,95.21
2018-06-16T01:03:48.486Z,94.92
2018-06-16T01:04:48.477Z,93.96
2018-06-16T01:05:48.470Z,93.48
2018-06-16T01:06:48.458Z,94.15
2018-06-16T01:07:48.436Z,94.25
2018-06-16T01:08:48.429Z,94.25
2018-06-16T01:09:48.417Z,93.62
2018-06-16T01:10:48.407Z,93.58
2018-06-16T01:11:48.400Z,93.72
2018-06-16T01:12:48.383Z,94.49
2018-06-16T01:13:48.371Z,94.01
2018-06-16T01:14:48.369Z,93.53
2018-06-16T01:15:48.347Z,94.30
2018-06-16T01:16:48.337Z,94.20
2018-06-16T01:17:48.328Z,93.91
2018-06-16T01:18:48.313Z,93.72
2018-06-16T01:19:48.304Z,94.20
2018-06-16T01:20:48.282Z,93.72
2018-06-16T01:21:48.278Z,93.15
2018-06-16T01:22:48.271Z,93.15
2018-06-16T01:23:48.255Z,93.15
2018-06-16T01:24:48.249Z,93.38
2018-06-16T01:25:48.231Z,93.72
2018-06-16T01:26:48.217Z,93.91
2018-06-16T01:27:48.210Z,93.62
2018-06-16T01:28:48.200Z,93.58
2018-06-16T01:29:48.185Z,94.06
2018-06-16T01:30:48.167Z,94.73
2018-06-16T01:31:48.156Z,95.31
2018-06-16T01:32:48.147Z,95.70
2018-06-16T01:33:48.136Z,95.31
2018-06-16T01:34:48.125Z,95.89
2018-06-16T01:35:48.111Z,96.17
2018-06-16T01:36:48.101Z,95.98
2018-06-16T01:37:48.086Z,96.80
2018-06-16T01:38:48.081Z,97.28
2018-06-16T01:39:48.065Z,97.67
2018-06-16T01:40:48.065Z,97.96
2018-06-16T01:41:48.044Z,98.44
2018-06-16T01:42:48.026Z,98.63
2018-06-16T01:43:48.014Z,98.44
2018-06-16T01:44:48.001Z,98.63
2018-06-16T01:45:47.998Z,98.34
2018-06-16T01:46:47.983Z,98.14
2018-06-16T01:47:47.970Z,97.38
2018-06-16T01:48:47.963Z,97.76
2018-06-16T01:49:47.946Z,97.67
2018-06-16T01:50:47.935Z,97.67
2018-06-16T01:51:47.924Z,97.67
2018-06-16T01:52:47.912Z,98.39
2018-06-16T01:53:47.901Z,97.67
2018-06-16T01:54:47.881Z,97.86
2018-06-16T01:55:47.882Z,97.76
2018-06-16T01:56:47.857Z,98.14
2018-06-16T01:57:47.848Z,98.05
2018-06-16T01:58:47.831Z,97.86
2018-06-16T01:59:47.827Z,99.15
2018-06-16T02:00:47.820Z,99.49
2018-06-16T02:01:47.802Z,99.99
2018-06-16T02:02:47.793Z,99.99
2018-06-16T02:03:47.774Z,99.99
2018-06-16T02:04:47.764Z,99.99
2018-06-16T02:05:47.760Z,99.99
2018-06-16T02:06:47.742Z,99.99
2018-06-16T02:07:47.732Z,99.99
2018-06-16T02:08:47.715Z,99.99
2018-06-16T02:09:47.713Z,99.99
2018-06-16T02:10:47.690Z,99.99
2018-06-16T02:11:47.676Z,99.99
2018-06-16T02:12:47.663Z,99.99
2018-06-16T02:13:47.802Z,99.68
2018-06-16T02:14:47.643Z,99.99
2018-06-16T02:15:47.634Z,99.99
2018-06-16T02:16:47.619Z,99.99
2018-06-16T02:17:47.612Z,99.99
2018-06-16T02:18:47.587Z,99.99
2018-06-16T02:19:47.580Z,99.99
2018-06-16T02:20:47.573Z,99.99
2018-06-16T02:21:47.558Z,99.99
2018-06-16T02:22:47.552Z,99.99
2018-06-16T02:23:47.631Z,99.99
2018-06-16T02:24:47.525Z,99.99
2018-06-16T02:25:47.609Z,99.99
2018-06-16T02:26:47.498Z,99.99
2018-06-16T02:27:47.577Z,99.99
2018-06-16T02:28:47.471Z,99.99
2018-06-16T02:29:47.486Z,99.99
2018-06-16T02:30:47.452Z,99.99
2018-06-16T02:31:47.535Z,99.99
2018-06-16T02:32:47.415Z,99.99
2018-06-16T02:33:47.458Z,99.99
2018-06-16T02:34:47.393Z,99.99
2018-06-16T02:35:47.385Z,99.99
2018-06-16T02:36:47.373Z,99.99
2018-06-16T02:37:47.360Z,99.99
2018-06-16T02:38:47.351Z,99.99
2018-06-16T02:39:47.350Z,99.99
2018-06-16T02:40:47.315Z,99.99
2018-06-16T02:41:47.309Z,99.99
2018-06-16T02:42:47.295Z,99.99
2018-06-16T02:43:47.285Z,99.99
2018-06-16T02:44:47.270Z,99.99
2018-06-16T02:45:47.256Z,99.99
2018-06-16T02:46:47.240Z,99.99
2018-06-16T02:47:47.235Z,99.99
2018-06-16T02:48:47.220Z,99.99
2018-06-16T02:49:47.212Z,99.99
2018-06-16T02:50:47.197Z,99.99
2018-06-16T02:51:47.184Z,99.99
2018-06-16T02:52:47.166Z,99.99
2018-06-16T02:53:47.178Z,99.99
2018-06-16T02:54:47.165Z,99.99
2018-06-16T02:55:47.131Z,99.99
2018-06-16T02:56:47.122Z,99.99
2018-06-16T02:57:47.112Z,99.99
2018-06-16T02:58:47.098Z,99.99
2018-06-16T02:59:47.082Z,99.99
2018-06-16T03:00:47.066Z,99.99
2018-06-16T03:01:47.053Z,99.99
2018-06-16T03:02:47.044Z,99.99
2018-06-16T03:03:47.038Z,99.99
2018-06-16T03:04:47.016Z,99.99
2018-06-16T03:05:47.006Z,99.99
2018-06-16T03:06:47.001Z,99.99
2018-06-16T03:07:46.978Z,99.99
2018-06-16T03:08:46.969Z,99.99
2018-06-16T03:09:46.955Z,99.99
2018-06-16T03:10:46.948Z,99.99
2018-06-16T03:11:46.925Z,99.99
2018-06-16T03:12:46.918Z,99.99
2018-06-16T03:13:46.900Z,99.99
2018-06-16T03:14:46.889Z,99.99
2018-06-16T03:15:46.884Z,99.99
2018-06-16T03:16:46.865Z,99.99
2018-06-16T03:17:46.851Z,99.99
2018-06-16T03:18:46.841Z,99.99
2018-06-16T03:19:46.825Z,99.99
2018-06-16T03:20:46.819Z,99.99
2018-06-16T03:21:46.799Z,99.99
2018-06-16T03:22:46.789Z,99.99
2018-06-16T03:23:46.777Z,99.99
2018-06-16T03:24:46.762Z,99.99
2018-06-16T03:25:46.764Z,99.99
2018-06-16T03:26:46.739Z,99.99
2018-06-16T03:27:46.730Z,99.99
2018-06-16T03:28:46.717Z,99.99
2018-06-16T03:29:46.720Z,99.99
2018-06-16T03:30:46.685Z,99.99
2018-06-16T03:31:46.684Z,99.99
2018-06-16T03:32:46.662Z,99.99
2018-06-16T03:33:46.650Z,99.99
2018-06-16T03:34:46.640Z,99.99
2018-06-16T03:35:46.624Z,99.99
2018-06-16T03:36:46.612Z,99.99
2018-06-16T03:37:46.602Z,99.99
2018-06-16T03:38:46.585Z,99.99
2018-06-16T03:39:46.575Z,99.99
2018-06-16T03:40:46.557Z,99.99
2018-06-16T03:41:46.548Z,99.99
2018-06-16T03:42:46.538Z,99.99
2018-06-16T03:43:46.521Z,99.99
2018-06-16T03:44:46.656Z,99.99
2018-06-16T03:45:46.496Z,99.99
2018-06-16T03:46:46.583Z,99.99
2018-06-16T03:47:46.464Z,99.99
2018-06-16T03:48:46.509Z,99.99
2018-06-16T03:49:46.438Z,99.99
2018-06-16T03:50:46.477Z,99.99
2018-06-16T03:51:46.422Z,99.99
2018-06-16T03:52:46.413Z,99.99
2018-06-16T03:53:46.392Z,99.99
2018-06-16T03:54:46.384Z,99.99
2018-06-16T03:55:46.365Z,99.99
2018-06-16T03:56:46.352Z,99.99
2018-06-16T03:57:46.346Z,99.99
2018-06-16T03:58:46.324Z,99.99
2018-06-16T03:59:46.315Z,99.99
2018-06-16T04:00:46.352Z,99.99
2018-06-16T04:01:46.303Z,99.99
2018-06-16T04:02:46.269Z,99.99
2018-06-16T04:03:46.258Z,99.99
2018-06-16T04:04:46.245Z,99.99
2018-06-16T04:05:46.238Z,99.99
2018-06-16T04:06:46.226Z,99.99
2018-06-16T04:07:46.215Z,99.99
2018-06-16T04:08:46.197Z,99.99
2018-06-16T04:09:46.186Z,99.99
2018-06-16T04:10:46.171Z,99.99
2018-06-16T04:11:46.161Z,99.99
2018-06-16T04:12:46.152Z,99.99
2018-06-16T04:13:46.136Z,99.99
2018-06-16T04:14:46.117Z,99.99
2018-06-16T04:15:46.103Z,99.99
2018-06-16T04:16:46.156Z,99.99
2018-06-16T04:17:46.083Z,99.99
2018-06-16T04:18:46.073Z,99.99
2018-06-16T04:19:46.063Z,99.99
2018-06-16T04:20:46.047Z,99.99
2018-06-16T04:21:46.032Z,99.99
2018-06-16T04:22:46.016Z,99.99
2018-06-16T04:23:46.010Z,99.99
2018-06-16T04:24:45.992Z,99.99
2018-06-16T04:25:45.977Z,99.99
2018-06-16T04:26:45.967Z,99.99
2018-06-16T04:27:45.958Z,99.99
2018-06-16T04:28:45.941Z,99.99
2018-06-16T04:29:45.930Z,99.99
2018-06-16T04:30:45.915Z,99.99
2018-06-16T04:31:45.900Z,99.99
2018-06-16T04:32:45.888Z,99.99
2018-06-16T04:33:45.880Z,99.99
2018-06-16T04:34:45.880Z,99.99
2018-06-16T04:35:45.850Z,99.99
2018-06-16T04:36:45.837Z,99.99
2018-06-16T04:37:45.821Z,99.99
2018-06-16T04:38:45.812Z,99.99
2018-06-16T04:39:45.802Z,99.99
2018-06-16T04:40:45.797Z,99.99
2018-06-16T04:41:45.779Z,99.99
2018-06-16T04:42:45.758Z,99.99
2018-06-16T04:43:45.749Z,99.99
2018-06-16T04:44:45.736Z,99.99
2018-06-16T04:45:45.876Z,99.99
2018-06-16T04:46:45.707Z,99.99
2018-06-16T04:47:45.694Z,99.99
2018-06-16T04:48:45.686Z,99.99
2018-06-16T04:49:45.679Z,99.99
2018-06-16T04:50:45.660Z,99.99
2018-06-16T04:51:45.644Z,99.99
2018-06-16T04:52:45.628Z,99.99
2018-06-16T04:53:45.621Z,99.99
2018-06-16T04:54:45.612Z,99.99
2018-06-16T04:55:45.602Z,99.99
2018-06-16T04:56:45.581Z,99.99
2018-06-16T04:57:45.570Z,99.99
2018-06-16T04:58:45.561Z,99.99
2018-06-16T04:59:45.551Z,99.99
2018-06-16T05:00:45.531Z,99.99
2018-06-16T05:01:45.515Z,99.99
2018-06-16T05:02:45.516Z,99.99
2018-06-16T05:03:45.496Z,99.99
2018-06-16T05:04:45.475Z,99.99
2018-06-16T05:05:45.467Z,99.99
2018-06-16T05:06:45.458Z,99.99
2018-06-16T05:07:45.448Z,99.99
2018-06-16T05:08:45.439Z,99.99
2018-06-16T05:09:45.421Z,99.99
2018-06-16T05:10:45.403Z,99.99
2018-06-16T05:11:45.404Z,99.99
2018-06-16T05:12:45.390Z,99.99
2018-06-16T05:13:45.377Z,99.99
2018-06-16T05:14:45.362Z,99.99
2018-06-16T05:15:45.351Z,99.99
2018-06-16T05:16:45.336Z,99.99
2018-06-16T05:17:45.320Z,99.88
2018-06-16T05:18:45.308Z,99.40
2018-06-16T05:19:45.301Z,99.01
2018-06-16T05:20:45.285Z,98.24
2018-06-16T05:21:45.277Z,98.24
2018-06-16T05:22:45.260Z,97.86
2018-06-16T05:23:45.261Z,97.52
2018-06-16T05:24:45.242Z,97.33
2018-06-16T05:25:45.328Z,96.85
2018-06-16T05:26:45.222Z,96.08
2018-06-16T05:27:45.212Z,95.26
2018-06-16T05:28:45.197Z,95.31
2018-06-16T05:29:45.182Z,93.68
2018-06-16T05:30:45.172Z,93.77
2018-06-16T05:31:45.166Z,92.76
2018-06-16T05:32:45.150Z,91.99
2018-06-16T05:33:45.136Z,91.80
2018-06-16T05:34:45.126Z,91.70
2018-06-16T05:35:45.115Z,91.41
2018-06-16T05:36:45.098Z,92.38
2018-06-16T05:37:45.092Z,91.51
2018-06-16T05:38:45.084Z,91.60
2018-06-16T05:39:45.067Z,91.22
2018-06-16T05:40:45.050Z,91.03
2018-06-16T05:41:45.039Z,90.73
2018-06-16T05:42:45.037Z,90.83
2018-06-16T05:43:45.021Z,91.13
2018-06-16T05:44:45.007Z,91.60
2018-06-16T05:45:44.998Z,92.47
2018-06-16T05:46:44.992Z,93.05
2018-06-16T05:47:44.976Z,93.15
2018-06-16T05:48:44.957Z,92.32
2018-06-16T05:49:44.946Z,92.90
2018-06-16T05:50:44.938Z,93.05
2018-06-16T05:51:44.921Z,92.95
2018-06-16T05:52:44.912Z,92.42
2018-06-16T05:53:44.912Z,93.19
2018-06-16T05:54:45.048Z,92.76
2018-06-16T05:55:44.880Z,92.90
2018-06-16T05:56:44.873Z,93.09
2018-06-16T05:57:44.857Z,93.53
2018-06-16T05:58:44.928Z,93.09
2018-06-16T05:59:44.835Z,93.00
2018-06-16T06:00:44.883Z,92.61
2018-06-16T06:01:44.809Z,92.52
2018-06-16T06:02:44.912Z,92.90
2018-06-16T06:03:44.787Z,92.52
2018-06-16T06:04:44.932Z,91.69
2018-06-16T06:05:44.767Z,91.55
2018-06-16T06:06:44.760Z,91.79
2018-06-16T06:07:44.746Z,91.50
2018-06-16T06:08:44.787Z,91.41
2018-06-16T06:09:44.717Z,91.50
2018-06-16T06:10:44.720Z,91.12
2018-06-16T06:11:44.710Z,90.83
2018-06-16T06:12:44.814Z,91.89
2018-06-16T06:13:44.674Z,91.12
2018-06-16T06:14:44.720Z,90.16
2018-06-16T06:15:44.712Z,91.12
2018-06-16T06:16:44.648Z,91.50
2018-06-16T06:17:44.633Z,91.79
2018-06-16T06:18:44.616Z,91.79
2018-06-16T06:19:44.611Z,91.12
2018-06-16T06:20:44.594Z,91.79
2018-06-16T06:21:44.588Z,91.99
2018-06-16T06:22:44.581Z,91.94
2018-06-16T06:23:44.579Z,91.69
2018-06-16T06:24:44.558Z,91.50
2018-06-16T06:25:44.543Z,90.83
2018-06-16T06:26:44.526Z,90.34
2018-06-16T06:27:44.517Z,89.96
2018-06-16T06:28:44.509Z,89.58
2018-06-16T06:29:44.498Z,89.67
2018-06-16T06:30:44.488Z,90.16
2018-06-16T06:31:44.481Z,89.39
2018-06-16T06:32:44.470Z,89.19
2018-06-16T06:33:44.455Z,90.16
2018-06-16T06:34:44.446Z,89.19
2018-06-16T06:35:44.442Z,89.19
2018-06-16T06:36:44.416Z,89.19
2018-06-16T06:37:44.420Z,88.85
2018-06-16T06:38:44.406Z,88.27
2018-06-16T06:39:44.391Z,88.65
2018-06-16T06:40:44.383Z,87.98
2018-06-16T06:41:44.369Z,87.30
2018-06-16T06:42:44.360Z,87.79
2018-06-16T06:43:44.354Z,88.08
2018-06-16T06:44:44.337Z,87.35
2018-06-16T06:45:44.328Z,87.16
2018-06-16T06:46:44.317Z,86.77
2018-06-16T06:47:44.308Z,86.62
2018-06-16T06:48:44.295Z,86.43
2018-06-16T06:49:44.291Z,84.94
2018-06-16T06:50:44.276Z,84.41
2018-06-16T06:51:44.282Z,84.50
2018-06-16T06:52:44.258Z,84.41
2018-06-16T06:53:44.244Z,84.31
2018-06-16T06:54:44.229Z,83.53
2018-06-16T06:55:44.223Z,82.86
2018-06-16T06:56:44.218Z,82.76
2018-06-16T06:57:44.203Z,83.05
2018-06-16T06:58:44.187Z,82.86
2018-06-16T06:59:44.184Z,82.96
2018-06-16T07:00:44.172Z,83.30
2018-06-16T07:01:44.163Z,83.01
2018-06-16T07:02:44.151Z,83.44
2018-06-16T07:03:44.154Z,83.25
2018-06-16T07:04:44.129Z,83.15
2018-06-16T07:05:44.124Z,82.72
2018-06-16T07:06:44.107Z,83.88
2018-06-16T07:07:44.102Z,82.67
2018-06-16T07:08:44.093Z,82.76
2018-06-16T07:09:44.092Z,82.86
2018-06-16T07:10:44.169Z,83.05
2018-06-16T07:11:44.061Z,82.96
2018-06-16T07:12:44.047Z,82.76
2018-06-16T07:13:44.037Z,82.67
2018-06-16T07:14:44.029Z,81.93
2018-06-16T07:15:44.017Z,81.74
2018-06-16T07:16:44.013Z,81.93
2018-06-16T07:17:44.006Z,80.53
2018-06-16T07:18:43.992Z,79.56
2018-06-16T07:19:43.983Z,80.53
2018-06-16T07:20:43.978Z,79.47
2018-06-16T07:21:43.960Z,78.66
2018-06-16T07:22:43.947Z,79.08
2018-06-16T07:23:43.945Z,77.92
2018-06-16T07:24:43.933Z,77.44
2018-06-16T07:25:43.932Z,76.37
2018-06-16T07:26:43.917Z,76.18
2018-06-16T07:27:43.897Z,76.86
2018-06-16T07:28:43.900Z,75.89
2018-06-16T07:29:43.885Z,75.89
2018-06-16T07:30:43.882Z,75.64
2018-06-16T07:31:43.862Z,75.22
2018-06-16T07:32:43.852Z,75.89
2018-06-16T07:33:43.853Z,74.96
2018-06-16T07:34:43.841Z,74.64
2018-06-16T07:35:43.830Z,75.16
2018-06-16T07:36:43.817Z,75.35
2018-06-16T07:37:43.811Z,74.96
2018-06-16T07:38:43.798Z,75.29
2018-06-16T07:39:43.792Z,75.10
2018-06-16T07:40:43.782Z,74.96
2018-06-16T07:41:43.774Z,75.39
2018-06-16T07:42:43.773Z,75.10
2018-06-16T07:43:43.763Z,75.20
2018-06-16T07:44:43.769Z,73.74
2018-06-16T07:45:43.741Z,73.68
2018-06-16T07:46:43.731Z,72.97
2018-06-16T07:47:43.722Z,72.39
2018-06-16T07:48:43.821Z,72.68
2018-06-16T07:49:43.700Z,72.24
2018-06-16T07:50:43.693Z,72.24
2018-06-16T07:51:43.684Z,71.84
2018-06-16T07:52:43.824Z,71.26
2018-06-16T07:53:43.667Z,72.04
2018-06-16T07:54:43.763Z,70.88
2018-06-16T07:55:43.651Z,71.66
2018-06-16T07:56:43.707Z,70.34
2018-06-16T07:57:43.626Z,70.40
2018-06-16T07:58:43.625Z,70.59
2018-06-16T07:59:43.628Z,70.40
2018-06-16T08:00:43.607Z,69.85
2018-06-16T08:01:43.598Z,69.17
2018-06-16T08:02:43.621Z,69.17
2018-06-16T08:03:43.582Z,69.37
2018-06-16T08:04:43.571Z,69.27
2018-06-16T08:05:43.566Z,68.59
2018-06-16T08:06:43.559Z,68.30
2018-06-16T08:07:43.553Z,68.21
2018-06-16T08:08:43.536Z,68.27
2018-06-16T08:09:43.534Z,68.79
2018-06-16T08:10:43.528Z,68.98
2018-06-16T08:11:43.518Z,67.82
2018-06-16T08:12:43.570Z,66.08
2018-06-16T08:13:43.494Z,66.37
2018-06-16T08:14:43.487Z,66.08
2018-06-16T08:15:43.478Z,66.47
2018-06-16T08:16:43.472Z,65.40
2018-06-16T08:17:43.471Z,64.34
2018-06-16T08:18:43.453Z,64.82
2018-06-16T08:19:43.442Z,63.95
2018-06-16T08:20:43.454Z,64.34
2018-06-16T08:21:43.429Z,65.40
2018-06-16T08:22:43.424Z,66.08
2018-06-16T08:23:43.420Z,65.50
2018-06-16T08:24:43.411Z,65.30
2018-06-16T08:25:43.404Z,65.05
2018-06-16T08:26:43.391Z,64.72
2018-06-16T08:27:43.386Z,66.08
2018-06-16T08:28:43.380Z,66.60
2018-06-16T08:29:43.367Z,65.53
2018-06-16T08:30:43.359Z,65.08
2018-06-16T08:31:43.357Z,64.89
2018-06-16T08:32:43.337Z,65.53
2018-06-16T08:33:43.353Z,65.56
2018-06-16T08:34:43.364Z,64.59
2018-06-16T08:35:43.328Z,65.24
2018-06-16T08:36:43.315Z,64.75
2018-06-16T08:37:43.356Z,65.56
2018-06-16T08:38:43.299Z,65.37
2018-06-16T08:39:43.341Z,64.59
2018-06-16T08:40:43.283Z,63.43
2018-06-16T08:41:43.274Z,63.49
2018-06-16T08:42:43.274Z,63.98
2018-06-16T08:43:43.255Z,64.37
2018-06-16T08:44:43.265Z,64.14
2018-06-16T08:45:43.252Z,65.92
2018-06-16T08:46:43.248Z,66.69
2018-06-16T08:47:43.232Z,66.11
2018-06-16T08:48:43.293Z,66.53
2018-06-16T08:49:43.206Z,65.85
2018-06-16T08:50:43.204Z,65.59
2018-06-16T08:51:43.197Z,64.24
2018-06-16T08:52:43.189Z,63.37
2018-06-16T08:53:43.181Z,63.95
2018-06-16T08:54:43.171Z,64.72
2018-06-16T08:55:43.258Z,64.82
2018-06-16T08:56:43.162Z,63.76
2018-06-16T08:57:43.148Z,62.21
2018-06-16T08:58:43.137Z,62.88
2018-06-16T08:59:43.129Z,63.31
2018-06-16T09:00:43.129Z,62.59
2018-06-16T09:01:43.117Z,63.37
2018-06-16T09:02:43.112Z,62.72
2018-06-16T09:03:43.098Z,63.27
2018-06-16T09:04:43.089Z,62.72
2018-06-16T09:05:43.089Z,62.43
2018-06-16T09:06:43.075Z,61.46
2018-06-16T09:07:43.072Z,60.98
2018-06-16T09:08:43.062Z,61.18
2018-06-16T09:09:43.046Z,60.78
2018-06-16T09:10:43.050Z,59.91
2018-06-16T09:11:43.037Z,60.47
2018-06-16T09:12:43.021Z,60.59
2018-06-16T09:13:43.021Z,60.59
2018-06-16T09:14:43.021Z,61.27
2018-06-16T09:15:43.022Z,61.18
2018-06-16T09:16:42.998Z,60.59
2018-06-16T09:17:43.000Z,59.91
2018-06-16T09:18:42.985Z,59.82
2018-06-16T09:19:42.983Z,60.04
2018-06-16T09:20:42.973Z,60.43
2018-06-16T09:21:42.962Z,60.14
2018-06-16T09:22:43.015Z,60.07
2018-06-16T09:23:42.941Z,59.00
2018-06-16T09:24:42.936Z,58.72
2018-06-16T09:25:42.930Z,59.20
2018-06-16T09:26:42.925Z,59.88
2018-06-16T09:27:42.917Z,60.04
2018-06-16T09:28:42.908Z,60.33
2018-06-16T09:29:42.900Z,61.30
2018-06-16T09:30:42.887Z,61.69
2018-06-16T09:31:42.940Z,60.98
2018-06-16T09:32:42.879Z,60.30
2018-06-16T09:33:42.872Z,59.84
2018-06-16T09:34:42.862Z,59.72
2018-06-16T09:35:42.864Z,60.72
2018-06-16T09:36:42.853Z,60.69
2018-06-16T09:37:42.837Z,60.62
2018-06-16T09:38:42.840Z,60.52
2018-06-16T09:39:42.821Z,61.11
2018-06-16T09:40:42.818Z,61.11
2018-06-16T09:41:42.812Z,61.11
2018-06-16T09:42:42.802Z,61.46
2018-06-16T09:43:42.793Z,62.14
2018-06-16T09:44:42.792Z,62.88
2018-06-16T09:45:42.783Z,62.24
2018-06-16T09:46:42.767Z,62.72
2018-06-16T09:47:42.766Z,61.95
2018-06-16T09:48:42.765Z,62.72
2018-06-16T09:49:42.747Z,62.98
2018-06-16T09:50:42.740Z,63.40
2018-06-16T09:51:42.735Z,62.72
2018-06-16T09:52:42.722Z,62.43
2018-06-16T09:53:42.722Z,62.72
2018-06-16T09:54:42.705Z,62.24
2018-06-16T09:55:42.706Z,62.07
2018-06-16T09:56:42.699Z,61.69
2018-06-16T09:57:42.700Z,60.94
2018-06-16T09:58:42.693Z,60.30
2018-06-16T09:59:42.673Z,60.30
2018-06-16T10:00:42.667Z,60.78
2018-06-16T10:01:42.657Z,59.71
2018-06-16T10:02:42.651Z,60.85
2018-06-16T10:03:42.697Z,59.97
2018-06-16T10:04:42.645Z,60.97
2018-06-16T10:05:42.632Z,60.68
2018-06-16T10:06:42.621Z,60.52
2018-06-16T10:07:42.616Z,59.45
2018-06-16T10:08:42.609Z,59.94
2018-06-16T10:09:42.616Z,59.52
2018-06-16T10:10:42.597Z,59.03
2018-06-16T10:11:42.587Z,59.36
2018-06-16T10:12:42.584Z,59.09
2018-06-16T10:13:42.632Z,57.76
2018-06-16T10:14:42.570Z,57.96
2018-06-16T10:15:42.565Z,57.37
2018-06-16T10:16:42.555Z,56.30
2018-06-16T10:17:42.558Z,56.21
2018-06-16T10:18:42.540Z,56.67
2018-06-16T10:19:42.540Z,56.09
2018-06-16T10:20:42.526Z,57.03
2018-06-16T10:21:42.518Z,57.51
2018-06-16T10:22:42.513Z,55.35
2018-06-16T10:23:42.508Z,55.57
2018-06-16T10:24:42.502Z,55.57
2018-06-16T10:25:42.500Z,54.80
2018-06-16T10:26:42.491Z,54.21
2018-06-16T10:27:42.484Z,53.73
2018-06-16T10:28:42.472Z,52.76
2018-06-16T10:29:42.466Z,53.15
2018-06-16T10:30:42.463Z,52.83
2018-06-16T10:31:42.450Z,53.12
2018-06-16T10:32:42.443Z,53.51
2018-06-16T10:33:42.434Z,53.80
2018-06-16T10:34:42.427Z,53.80
2018-06-16T10:35:42.424Z,54.67
2018-06-16T10:36:42.423Z,54.58
2018-06-16T10:37:42.412Z,55.49
2018-06-16T10:38:42.409Z,56.65
2018-06-16T10:39:42.396Z,56.97
2018-06-16T10:40:42.542Z,57.36
2018-06-16T10:41:42.389Z,56.10
2018-06-16T10:42:42.524Z,56.87
2018-06-16T10:43:42.372Z,56.41
2018-06-16T10:44:42.417Z,54.86
2018-06-16T10:45:42.358Z,54.84
2018-06-16T10:46:42.450Z,54.48
2018-06-16T10:47:42.344Z,54.28
2018-06-16T10:48:42.383Z,54.64
2018-06-16T10:49:42.332Z,53.99
2018-06-16T10:50:42.319Z,53.80
2018-06-16T10:51:42.316Z,54.16
2018-06-16T10:52:42.357Z,54.58
2018-06-16T10:53:42.296Z,54.48
2018-06-16T10:54:42.294Z,53.83
2018-06-16T10:55:42.282Z,53.73
2018-06-16T10:56:42.285Z,52.95
2018-06-16T10:57:42.273Z,52.18
2018-06-16T10:58:42.263Z,51.79
2018-06-16T10:59:42.260Z,51.76
2018-06-16T11:00:42.247Z,51.76
2018-06-16T11:01:42.247Z,52.18
2018-06-16T11:02:42.242Z,52.66
2018-06-16T11:03:42.231Z,52.95
2018-06-16T11:04:42.223Z,51.11
2018-06-16T11:05:42.216Z,51.59
2018-06-16T11:06:42.208Z,51.50
2018-06-16T11:07:42.199Z,50.92
2018-06-16T11:08:42.199Z,51.67
2018-06-16T11:09:42.186Z,51.76
2018-06-16T11:10:42.176Z,51.18
2018-06-16T11:11:42.170Z,50.89
2018-06-16T11:12:42.164Z,51.76
2018-06-16T11:13:42.161Z,51.37
2018-06-16T11:14:42.147Z,51.57
2018-06-16T11:15:42.146Z,51.28
2018-06-16T11:16:42.136Z,51.16
2018-06-16T11:17:42.122Z,52.12
2018-06-16T11:18:42.132Z,52.83
2018-06-16T11:19:42.120Z,53.19
2018-06-16T11:20:42.102Z,54.16
2018-06-16T11:21:42.094Z,53.77
2018-06-16T11:22:42.090Z,53.97
2018-06-16T11:23:42.084Z,54.16
2018-06-16T11:24:42.077Z,54.45
2018-06-16T11:25:42.069Z,55.13
2018-06-16T11:26:42.061Z,55.42
2018-06-16T11:27:42.051Z,55.49
2018-06-16T11:28:42.048Z,55.52
2018-06-16T11:29:42.035Z,54.62
2018-06-16T11:30:42.032Z,54.23
2018-06-16T11:31:42.019Z,54.16
2018-06-16T11:32:42.017Z,53.85
2018-06-16T11:33:42.006Z,53.97
2018-06-16T11:34:41.999Z,53.67
2018-06-16T11:35:41.987Z,52.90
2018-06-16T11:36:41.983Z,53.65
2018-06-16T11:37:41.978Z,53.19
2018-06-16T11:38:41.969Z,53.77
2018-06-16T11:39:41.967Z,53.39
2018-06-16T11:40:41.948Z,53.49
2018-06-16T11:41:41.954Z,52.22
2018-06-16T11:42:41.980Z,52.32
2018-06-16T11:43:41.926Z,51.57
2018-06-16T11:44:41.929Z,51.76
2018-06-16T11:45:41.913Z,51.28
2018-06-16T11:46:41.911Z,51.86
2018-06-16T11:47:41.897Z,51.31
2018-06-16T11:48:41.910Z,51.11
2018-06-16T11:49:41.891Z,51.11
2018-06-16T11:50:41.881Z,51.11
2018-06-16T11:51:41.872Z,51.01
2018-06-16T11:52:41.869Z,51.11
2018-06-16T11:53:41.859Z,51.50
2018-06-16T11:54:41.846Z,51.81
2018-06-16T11:55:41.840Z,51.43
2018-06-16T11:56:41.828Z,50.36
2018-06-16T11:57:41.862Z,49.87
2018-06-16T11:58:41.818Z,49.75
2018-06-16T11:59:41.816Z,50.34
2018-06-16T12:00:41.801Z,51.47
2018-06-16T12:01:41.795Z,51.47
2018-06-16T12:02:41.786Z,51.37
2018-06-16T12:03:41.787Z,51.76
2018-06-16T12:04:41.785Z,51.40
2018-06-16T12:05:41.766Z,51.79
2018-06-16T12:06:41.760Z,51.69
2018-06-16T12:07:41.759Z,50.79
2018-06-16T12:08:41.746Z,51.37
2018-06-16T12:09:41.738Z,49.75
2018-06-16T12:10:41.738Z,50.43
2018-06-16T12:11:41.725Z,50.43
2018-06-16T12:12:41.718Z,51.01
2018-06-16T12:13:41.721Z,51.47
2018-06-16T12:14:41.699Z,51.18
2018-06-16T12:15:41.696Z,51.76
2018-06-16T12:16:41.688Z,51.67
2018-06-16T12:17:41.683Z,51.11
2018-06-16T12:18:41.673Z,50.50
2018-06-16T12:19:41.668Z,51.50
2018-06-16T12:20:41.655Z,51.40
2018-06-16T12:21:41.651Z,51.31
2018-06-16T12:22:41.652Z,51.69
2018-06-16T12:23:41.638Z,50.24
2018-06-16T12:24:41.629Z,49.54
2018-06-16T12:25:41.625Z,49.92
2018-06-16T12:26:41.618Z,50.21
2018-06-16T12:27:41.606Z,50.79
2018-06-16T12:28:41.594Z,51.59
2018-06-16T12:29:41.609Z,50.34
2018-06-16T12:30:41.588Z,49.66
2018-06-16T12:31:41.587Z,49.19
2018-06-16T12:32:41.576Z,49.22
2018-06-16T12:33:41.562Z,49.12
2018-06-16T12:34:41.556Z,48.44
2018-06-16T12:35:41.551Z,48.44
2018-06-16T12:36:41.539Z,48.05
2018-06-16T12:37:41.542Z,47.08
2018-06-16T12:38:41.524Z,47.96
2018-06-16T12:39:41.529Z,48.73
2018-06-16T12:40:41.533Z,48.80
2018-06-16T12:41:41.508Z,49.10
2018-06-16T12:42:41.500Z,49.49
2018-06-16T12:43:41.581Z,49.68
2018-06-16T12:44:41.529Z,50.04
2018-06-16T12:45:41.476Z,49.66
2018-06-16T12:46:41.466Z,50.26
2018-06-16T12:47:41.613Z,50.36
2018-06-16T12:48:41.457Z,49.97
2018-06-16T12:49:41.447Z,49.12
2018-06-16T12:50:41.446Z,49.39
2018-06-16T12:51:41.538Z,49.39
2018-06-16T12:52:41.431Z,49.00